createdAt,value
2018-12-20T00:01:01.895Z,99076.86
2018-12-20T00:06:07.162Z,99076.31
2018-12-20T00:11:13.914Z,99083.02
2018-12-20T00:16:19.073Z,99076.48
2018-12-20T00:21:24.215Z,99076.95
2018-12-20T00:26:29.199Z,99078.26
2018-12-20T00:31:34.151Z,99082.97
2018-12-20T00:36:39.027Z,99076.56
2018-12-20T00:41:43.880Z,99075.85
2018-12-20T00:46:48.829Z,99076.38
2018-12-20T00:57:04.204Z,99074.90
2018-12-20T01:02:09.369Z,99083.04
2018-12-20T01:07:14.627Z,99080.69
2018-12-20T01:12:19.708Z,99083.86
2018-12-20T01:17:26.725Z,99080.56
2018-12-20T01:22:31.678Z,99090.72
2018-12-20T01:27:37.021Z,99087.72
2018-12-20T01:32:42.015Z,99088.67
2018-12-20T01:37:46.882Z,99090.68
2018-12-20T01:42:52.412Z,99091.53
2018-12-20T01:47:57.268Z,99096.70
2018-12-20T01:53:03.300Z,99087.51
2018-12-20T01:58:08.521Z,99095.84
2018-12-20T02:03:13.398Z,99096.74
2018-12-20T02:08:18.413Z,99086.97
2018-12-20T02:18:33.487Z,99071.21
2018-12-20T02:23:39.083Z,99085.45
2018-12-20T02:28:44.048Z,99086.73
2018-12-20T02:33:49.342Z,99082.14
2018-12-20T02:38:54.533Z,99084.05
2018-12-20T02:43:59.557Z,99083.34
2018-12-20T02:49:05.373Z,99074.64
2018-12-20T02:54:10.465Z,99067.53
2018-12-20T02:59:15.729Z,99065.89
2018-12-20T03:04:21.937Z,99062.64
2018-12-20T03:09:26.985Z,99063.19
2018-12-20T03:14:31.976Z,99055.27
2018-12-20T03:19:37.599Z,99061.47
2018-12-20T03:24:42.803Z,99060.21
2018-12-20T03:29:47.973Z,99054.98
2018-12-20T03:34:53.270Z,99053.25
2018-12-20T03:39:58.491Z,99062.95
2018-12-20T03:45:03.570Z,99052.09
2018-12-20T03:50:12.296Z,99048.80
2018-12-20T03:55:17.808Z,99050.70
2018-12-20T04:00:23.731Z,99050.81
2018-12-20T04:05:28.678Z,99048.52
2018-12-20T04:10:33.663Z,99041.71
2018-12-20T04:15:38.850Z,99038.84
2018-12-20T04:20:43.958Z,99032.29
2018-12-20T04:25:48.983Z,99034.12
2018-12-20T04:30:53.878Z,99029.62
2018-12-20T04:35:59.458Z,99029.57
2018-12-20T04:41:05.662Z,99026.82
2018-12-20T04:46:10.681Z,99027.95
2018-12-20T04:51:16.963Z,99025.72
2018-12-20T04:56:22.272Z,99020.88
2018-12-20T05:01:27.591Z,99020.81
2018-12-20T05:06:33.705Z,99007.67
2018-12-20T05:11:38.561Z,99022.16
2018-12-20T05:16:43.899Z,99012.00
2018-12-20T05:21:49.061Z,99019.94
2018-12-20T05:26:58.389Z,99020.71
2018-12-20T05:32:03.658Z,99022.56
2018-12-20T05:37:08.834Z,99030.39
2018-12-20T05:42:13.976Z,99032.84
2018-12-20T05:47:19.269Z,99045.76
2018-12-20T05:52:24.617Z,99052.06
2018-12-20T05:57:29.481Z,99048.08
2018-12-20T06:02:34.626Z,99043.19
2018-12-20T06:07:40.587Z,99036.61
2018-12-20T06:12:45.626Z,99040.38
2018-12-20T06:17:51.112Z,99034.25
2018-12-20T06:28:06.239Z,99037.88
2018-12-20T06:33:11.127Z,99036.44
2018-12-20T06:38:15.950Z,99035.88
2018-12-20T06:43:20.960Z,99041.84
2018-12-20T06:48:25.730Z,99038.20
2018-12-20T06:53:30.634Z,99039.61
2018-12-20T06:58:35.486Z,99041.58
2018-12-20T07:03:40.952Z,99030.60
2018-12-20T07:08:45.785Z,99028.66
2018-12-20T07:13:50.652Z,99034.84
2018-12-20T07:18:55.535Z,99039.00
2018-12-20T07:24:00.379Z,99037.05
2018-12-20T07:29:05.650Z,99045.34
2018-12-20T07:34:10.568Z,99039.02
2018-12-20T07:39:15.436Z,99043.34
2018-12-20T07:44:21.644Z,99042.13
2018-12-20T07:49:26.498Z,99041.47
2018-12-20T07:54:31.340Z,99046.34
2018-12-20T07:59:36.302Z,99039.81
2018-12-20T08:04:41.237Z,99049.06
2018-12-20T08:09:46.061Z,99050.44
2018-12-20T08:14:51.005Z,99056.34
2018-12-20T08:19:55.875Z,99050.08
2018-12-20T08:25:01.031Z,99053.54
2018-12-20T08:30:09.539Z,99055.37
2018-12-20T08:35:14.495Z,99057.48
2018-12-20T08:40:19.410Z,99056.61
2018-12-20T08:45:24.861Z,99061.36
2018-12-20T08:50:30.958Z,99067.05
2018-12-20T08:55:36.536Z,99061.54
2018-12-20T09:00:41.761Z,99068.38
2018-12-20T09:05:46.867Z,99064.66
2018-12-20T09:10:51.705Z,99072.58
2018-12-20T09:15:56.882Z,99065.47
2018-12-20T09:21:02.911Z,99075.42
2018-12-20T09:26:07.849Z,99075.66
2018-12-20T09:31:13.285Z,99075.81
2018-12-20T09:36:18.190Z,99069.98
2018-12-20T09:41:23.798Z,99062.25
2018-12-20T09:46:28.779Z,99058.45
2018-12-20T09:51:33.729Z,99055.02
2018-12-20T09:56:39.383Z,99046.45
2018-12-20T10:01:46.510Z,99052.25
2018-12-20T10:06:52.039Z,99051.13
2018-12-20T10:11:57.004Z,99053.11
2018-12-20T10:17:02.344Z,99048.37
2018-12-20T10:22:08.000Z,99028.17
2018-12-20T10:27:13.070Z,99032.19
2018-12-20T10:32:17.990Z,99020.92
2018-12-20T10:37:22.845Z,99016.83
2018-12-20T10:42:27.700Z,99007.44
2018-12-20T10:47:33.339Z,99011.13
2018-12-20T10:52:38.727Z,99001.87
2018-12-20T10:57:43.679Z,98992.27
2018-12-20T11:04:59.179Z,98980.72
2018-12-20T11:10:09.798Z,98984.24
2018-12-20T11:15:15.861Z,98982.94
2018-12-20T11:20:21.360Z,98977.12
2018-12-20T11:25:27.205Z,98980.45
2018-12-20T11:30:34.174Z,98976.50
2018-12-20T11:35:39.054Z,98959.88
2018-12-20T11:40:44.031Z,98960.89
2018-12-20T11:45:49.323Z,98964.60
2018-12-20T11:50:55.995Z,98953.78
2018-12-20T11:56:01.242Z,98960.53
2018-12-20T12:01:07.741Z,98952.56
2018-12-20T12:06:14.319Z,98957.58
2018-12-20T12:11:20.454Z,98946.84
2018-12-20T12:16:25.738Z,98940.28
2018-12-20T12:21:30.625Z,98951.22
2018-12-20T12:26:36.200Z,98955.47
2018-12-20T12:31:41.076Z,98945.11
2018-12-20T12:36:46.638Z,98944.77
2018-12-20T12:41:51.569Z,98955.36
2018-12-20T12:46:56.486Z,98958.81
2018-12-20T12:52:01.359Z,98955.25
2018-12-20T12:57:07.164Z,98960.03
2018-12-20T13:02:12.414Z,98969.65
2018-12-20T13:07:17.673Z,98968.66
2018-12-20T13:12:22.832Z,98968.12
2018-12-20T13:17:27.683Z,98957.66
2018-12-20T13:22:32.737Z,98965.23
2018-12-20T13:27:37.583Z,98967.39
2018-12-20T13:32:42.421Z,98975.41
2018-12-20T13:37:47.361Z,98983.05
2018-12-20T13:42:52.836Z,98969.95
2018-12-20T13:47:57.653Z,98971.98
2018-12-20T13:58:18.981Z,98971.02
2018-12-20T14:03:26.011Z,98962.97
2018-12-20T14:08:30.917Z,98966.16
2018-12-20T14:13:35.779Z,98972.21
2018-12-20T14:18:41.458Z,98976.10
2018-12-20T14:23:46.884Z,98969.62
2018-12-20T14:28:52.755Z,98970.50
2018-12-20T14:33:58.365Z,98975.88
2018-12-20T14:39:04.866Z,98975.18
2018-12-20T14:44:10.870Z,98973.57
2018-12-20T14:49:15.771Z,98979.31
2018-12-20T14:54:20.746Z,98982.06
2018-12-20T15:04:35.829Z,98986.34
2018-12-20T15:09:41.530Z,98988.05
2018-12-20T15:14:46.618Z,98993.89
2018-12-20T15:19:51.601Z,99003.34
2018-12-20T15:24:56.485Z,99006.09
2018-12-20T15:30:11.099Z,99005.83
2018-12-20T15:35:16.069Z,99009.67
2018-12-20T15:40:21.283Z,99011.52
2018-12-20T15:45:26.358Z,99020.71
2018-12-20T15:50:33.841Z,99016.43
2018-12-20T15:55:39.772Z,99018.76
2018-12-20T16:00:45.074Z,99023.69
2018-12-20T16:05:50.899Z,99015.29
2018-12-20T16:10:55.848Z,99024.24
2018-12-20T16:16:01.018Z,99027.82
2018-12-20T16:21:07.014Z,99023.02
2018-12-20T16:26:13.572Z,99024.95
2018-12-20T16:31:19.204Z,99029.31
2018-12-20T16:36:25.730Z,99034.52
2018-12-20T16:41:30.831Z,99034.13
2018-12-20T16:46:35.978Z,99024.62
2018-12-20T16:51:41.659Z,99031.78
2018-12-20T16:56:46.620Z,99028.42
2018-12-20T17:07:02.864Z,99041.88
2018-12-20T17:12:07.772Z,99042.30
2018-12-20T17:17:14.461Z,99022.69
2018-12-20T17:22:19.711Z,99031.83
2018-12-20T17:27:26.332Z,99034.34
2018-12-20T17:32:32.971Z,99036.38
2018-12-20T17:37:40.633Z,99029.85
2018-12-20T17:42:46.144Z,99038.67
2018-12-20T17:47:51.784Z,99044.12
2018-12-20T17:52:57.330Z,99042.14
2018-12-20T17:58:03.543Z,99038.09
2018-12-20T18:03:08.845Z,99039.32
2018-12-20T18:08:16.611Z,99045.73
2018-12-20T18:13:22.739Z,99046.42
2018-12-20T18:18:27.916Z,99041.50
2018-12-20T18:23:33.528Z,99044.66
2018-12-20T18:28:39.467Z,99056.69
2018-12-20T18:33:45.749Z,99061.80
2018-12-20T18:38:51.227Z,99056.10
2018-12-20T18:43:56.246Z,99063.20
2018-12-20T18:49:06.371Z,99059.56
2018-12-20T18:54:12.918Z,99066.09
2018-12-20T18:59:17.993Z,99053.41
2018-12-20T19:04:24.101Z,99069.38
2018-12-20T19:09:29.560Z,99062.22
2018-12-20T19:14:35.574Z,99071.30
2018-12-20T19:19:40.800Z,99068.89
2018-12-20T19:24:50.634Z,99074.92
2018-12-20T19:29:55.804Z,99076.63
2018-12-20T19:35:05.926Z,99061.55
2018-12-20T19:40:13.587Z,99066.66
2018-12-20T19:45:21.417Z,99060.97
2018-12-20T19:50:29.985Z,99063.20
2018-12-20T19:55:35.782Z,99075.92
2018-12-20T20:00:43.943Z,99070.78
2018-12-20T20:05:50.508Z,99073.14
2018-12-20T20:10:56.019Z,99070.69
2018-12-20T20:16:03.568Z,99069.40
2018-12-20T20:21:10.412Z,99084.31
2018-12-20T20:26:15.558Z,99080.02
2018-12-20T20:31:21.687Z,99077.21
2018-12-20T20:36:28.498Z,99081.31
2018-12-20T20:41:38.368Z,99084.55
2018-12-20T20:46:46.270Z,99086.36
2018-12-20T20:51:52.729Z,99074.64
2018-12-20T20:57:00.984Z,99072.06
2018-12-20T21:02:09.551Z,99081.11
2018-12-20T21:07:20.971Z,99082.46
2018-12-20T21:12:28.776Z,99068.88
2018-12-20T21:17:35.022Z,99072.83
2018-12-20T21:22:40.926Z,99074.06
2018-12-20T21:27:46.362Z,99071.58
2018-12-20T21:32:52.600Z,99074.37
2018-12-20T21:37:58.126Z,99078.40
2018-12-20T21:43:04.652Z,99084.64
2018-12-20T21:48:09.614Z,99090.41
2018-12-20T21:53:15.423Z,99089.50
2018-12-20T21:58:20.904Z,99081.59
2018-12-20T22:03:26.498Z,99083.61
2018-12-20T22:08:32.667Z,99082.08
2018-12-20T22:13:37.705Z,99086.55
2018-12-20T22:18:42.770Z,99083.03
2018-12-20T22:23:48.538Z,99088.25
2018-12-20T22:28:55.029Z,99093.47
2018-12-20T22:34:00.027Z,99084.55
2018-12-20T22:39:08.034Z,99085.80
2018-12-20T22:44:13.391Z,99084.98
2018-12-20T22:49:18.203Z,99079.36
2018-12-20T22:54:23.156Z,99069.59
2018-12-20T22:59:28.936Z,99077.59
2018-12-20T23:04:34.858Z,99072.03
2018-12-20T23:09:40.127Z,99071.44
2018-12-20T23:14:46.460Z,99058.71
2018-12-20T23:19:52.762Z,99060.43
2018-12-20T23:24:57.595Z,99053.48
2018-12-20T23:30:05.811Z,99045.19
2018-12-20T23:35:11.576Z,99044.31
2018-12-20T23:40:17.615Z,99041.13
2018-12-20T23:45:23.112Z,99049.25
2018-12-20T23:50:28.019Z,99049.25
2018-12-20T23:55:34.141Z,99045.14
